Time,TemperatureF,DewpointF,PressureIn,WindDirection,WindDirectionDegrees,WindSpeedMPH,WindSpeedGustMPH,Humidity,HourlyPrecipIn,Conditions,Clouds,dailyrainin,SolarRadiationWatts/m^2,SoftwareType,DateUTC
2013-08-13 00:03:00,64.0,64.0,-100.00,NE,50,1.0,6.0,99,0.00,,,0.07,0.000000,,2013-08-13 04:03:00,
2013-08-13 00:42:00,63.0,62.0,-100.00,ENE,58,3.0,9.0,97,0.00,,,0.07,0.000000,,2013-08-13 04:42:00,
2013-08-13 00:53:00,63.0,62.0,-100.00,ENE,58,3.0,9.0,97,0.00,,,0.07,0.000000,,2013-08-13 04:53:00,
2013-08-13 01:02:00,63.0,62.0,-100.00,ENE,58,3.0,9.0,97,0.00,,,0.07,0.000000,,2013-08-13 05:02:00,
2013-08-13 01:42:00,63.0,62.0,-100.00,East,79,2.0,4.0,97,0.00,,,0.07,0.000000,,2013-08-13 05:42:00,
2013-08-13 01:52:00,63.0,62.0,-100.00,East,79,2.0,4.0,97,0.00,,,0.07,0.000000,,2013-08-13 05:52:00,
2013-08-13 02:02:00,63.0,62.0,-100.00,East,79,2.0,4.0,97,0.00,,,0.07,0.000000,,2013-08-13 06:02:00,
2013-08-13 02:42:00,65.0,64.0,-100.00,SW,223,2.0,5.0,96,0.00,,,0.07,0.000000,,2013-08-13 06:42:00,
2013-08-13 02:53:00,65.0,64.0,-100.00,SW,223,2.0,5.0,96,0.00,,,0.07,0.000000,,2013-08-13 06:53:00,
2013-08-13 03:01:00,65.0,64.0,-100.00,SW,223,2.0,5.0,96,0.00,,,0.07,0.000000,,2013-08-13 07:01:00,
2013-08-13 03:42:00,65.0,63.0,-100.00,ESE,117,2.0,4.0,92,0.00,,,0.07,0.000000,,2013-08-13 07:42:00,
2013-08-13 03:52:00,65.0,63.0,-100.00,ESE,117,2.0,4.0,92,0.00,,,0.07,0.000000,,2013-08-13 07:52:00,
2013-08-13 04:02:00,65.0,63.0,-100.00,ESE,117,2.0,4.0,92,0.00,,,0.07,0.000000,,2013-08-13 08:02:00,
2013-08-13 04:42:00,64.0,63.0,-100.00,WNW,291,1.0,3.0,96,0.09,,,0.16,0.000000,,2013-08-13 08:42:00,
2013-08-13 04:52:00,64.0,63.0,-100.00,WNW,291,1.0,3.0,96,0.09,,,0.16,0.000000,,2013-08-13 08:52:00,
2013-08-13 05:01:00,64.0,63.0,-100.00,WNW,291,1.0,3.0,96,0.09,,,0.16,0.000000,,2013-08-13 09:01:00,
2013-08-13 05:43:00,63.0,63.0,-100.00,SSE,165,2.0,6.0,99,0.01,,,0.17,0.000000,,2013-08-13 09:43:00,
2013-08-13 05:54:00,63.0,63.0,-100.00,SSE,165,2.0,6.0,99,0.01,,,0.17,0.000000,,2013-08-13 09:54:00,
2013-08-13 06:03:00,63.0,63.0,-100.00,SSE,165,2.0,6.0,99,0.01,,,0.17,0.000000,,2013-08-13 10:03:00,
2013-08-13 06:43:00,63.0,63.0,-100.00,South,184,2.0,7.0,99,0.00,,,0.17,0.000000,,2013-08-13 10:43:00,
2013-08-13 06:53:00,63.0,63.0,-100.00,South,184,2.0,7.0,99,0.00,,,0.17,0.000000,,2013-08-13 10:53:00,
2013-08-13 07:02:00,63.0,63.0,-100.00,South,184,2.0,7.0,99,0.00,,,0.17,0.000000,,2013-08-13 11:02:00,
2013-08-13 07:42:00,63.0,63.0,-100.00,WSW,237,2.0,6.0,100,0.00,,,0.17,1.000000,,2013-08-13 11:42:00,
2013-08-13 07:52:00,63.0,63.0,-100.00,WSW,237,2.0,6.0,100,0.00,,,0.17,1.000000,,2013-08-13 11:52:00,
2013-08-13 08:01:00,63.0,63.0,-100.00,WSW,237,2.0,6.0,100,0.00,,,0.17,1.000000,,2013-08-13 12:01:00,
2013-08-13 08:42:00,66.0,65.0,-100.00,WSW,238,2.0,6.0,98,0.02,,,0.19,71.000000,,2013-08-13 12:42:00,
2013-08-13 08:52:00,66.0,65.0,-100.00,WSW,238,2.0,6.0,98,0.02,,,0.19,71.000000,,2013-08-13 12:52:00,
2013-08-13 09:01:00,66.0,65.0,-100.00,WSW,238,2.0,6.0,98,0.02,,,0.19,71.000000,,2013-08-13 13:01:00,
2013-08-13 09:42:00,64.0,64.0,-100.00,SW,223,2.0,5.0,99,0.09,,,0.28,17.000000,,2013-08-13 13:42:00,
2013-08-13 09:52:00,64.0,64.0,-100.00,SW,223,2.0,5.0,99,0.09,,,0.28,17.000000,,2013-08-13 13:52:00,
2013-08-13 10:02:00,64.0,64.0,-100.00,SW,223,2.0,5.0,99,0.09,,,0.28,17.000000,,2013-08-13 14:02:00,
2013-08-13 10:42:00,66.0,66.0,-100.00,West,272,2.0,6.0,99,0.00,,,0.28,96.000000,,2013-08-13 14:42:00,
2013-08-13 10:52:00,66.0,66.0,-100.00,West,272,2.0,6.0,99,0.00,,,0.28,96.000000,,2013-08-13 14:52:00,
2013-08-13 11:02:00,66.0,66.0,-100.00,West,272,2.0,6.0,99,0.00,,,0.28,96.000000,,2013-08-13 15:02:00,
2013-08-13 11:44:00,65.0,65.0,-100.00,WSW,255,3.0,6.0,99,0.07,,,0.35,112.000000,,2013-08-13 15:44:00,
2013-08-13 11:54:00,65.0,65.0,-100.00,WSW,255,3.0,6.0,99,0.07,,,0.35,112.000000,,2013-08-13 15:54:00,
2013-08-13 12:04:00,65.0,65.0,-100.00,WSW,255,3.0,6.0,99,0.07,,,0.35,112.000000,,2013-08-13 16:04:00,
2013-08-13 12:05:00,65.0,64.0,-100.00,West,268,2.0,6.0,98,0.03,,,0.38,135.000000,,2013-08-13 16:05:00,
2013-08-13 12:45:00,65.0,64.0,-100.00,West,268,2.0,6.0,98,0.03,,,0.38,135.000000,,2013-08-13 16:45:00,
2013-08-13 12:54:00,65.0,64.0,-100.00,West,268,2.0,6.0,98,0.03,,,0.38,135.000000,,2013-08-13 16:54:00,
2013-08-13 13:05:00,71.0,69.0,-100.00,WSW,245,3.0,7.0,93,0.00,,,0.38,418.000000,,2013-08-13 17:05:00,
2013-08-13 13:46:00,-999.0,-99.9,-100.00,WSW,245,3.0,7.0,-999,0.00,,,0.38,418.000000,,2013-08-13 17:46:00,
2013-08-13 13:56:00,71.0,69.0,-100.00,WSW,245,3.0,7.0,93,0.00,,,0.38,418.000000,,2013-08-13 17:56:00,
2013-08-13 14:44:00,72.0,69.0,-100.00,WSW,239,3.0,7.0,89,0.00,,,0.36,520.000000,,2013-08-13 18:44:00,
2013-08-13 14:56:00,72.0,69.0,-100.00,WSW,239,3.0,7.0,89,0.00,,,0.36,520.000000,,2013-08-13 18:56:00,
2013-08-13 15:04:00,72.0,69.0,-100.00,WSW,239,3.0,7.0,89,0.00,,,0.36,520.000000,,2013-08-13 19:04:00,
2013-08-13 15:44:00,74.0,67.0,-100.00,WSW,249,3.0,7.0,80,0.00,,,0.31,742.000000,,2013-08-13 19:44:00,
2013-08-13 15:55:00,74.0,67.0,-100.00,WSW,249,3.0,7.0,80,0.00,,,0.31,742.000000,,2013-08-13 19:55:00,
2013-08-13 16:04:00,74.0,67.0,-100.00,WSW,249,3.0,7.0,80,0.00,,,0.31,742.000000,,2013-08-13 20:04:00,
2013-08-13 16:45:00,74.0,69.0,-100.00,SW,233,4.0,8.0,84,0.00,,,0.31,521.000000,,2013-08-13 20:45:00,
2013-08-13 16:53:00,74.0,69.0,-100.00,SW,233,4.0,8.0,84,0.00,,,0.31,521.000000,,2013-08-13 20:53:00,
2013-08-13 17:01:00,74.0,69.0,-100.00,SW,233,4.0,8.0,84,0.00,,,0.31,521.000000,,2013-08-13 21:01:00,
2013-08-13 17:46:00,71.0,67.0,-100.00,WSW,246,2.0,9.0,87,0.00,,,0.31,403.000000,,2013-08-13 21:46:00,
2013-08-13 17:54:00,71.0,67.0,-100.00,WSW,246,2.0,9.0,87,0.00,,,0.31,403.000000,,2013-08-13 21:54:00,
2013-08-13 18:04:00,71.0,67.0,-100.00,WSW,246,2.0,9.0,87,0.00,,,0.31,403.000000,,2013-08-13 22:04:00,
2013-08-13 18:50:00,74.0,69.0,-100.00,West,264,2.0,7.0,85,0.00,,,0.31,298.000000,,2013-08-13 22:50:00,
2013-08-13 18:57:00,74.0,69.0,-100.00,West,264,2.0,7.0,85,0.00,,,0.31,298.000000,,2013-08-13 22:57:00,
2013-08-13 19:04:00,74.0,69.0,-100.00,West,264,2.0,7.0,85,0.00,,,0.31,298.000000,,2013-08-13 23:04:00,
2013-08-13 19:47:00,68.0,65.0,-100.00,WNW,286,3.0,7.0,89,0.00,,,0.31,149.000000,,2013-08-13 23:47:00,
2013-08-13 19:57:00,68.0,65.0,-100.00,WNW,286,3.0,7.0,89,0.00,,,0.31,149.000000,,2013-08-13 23:57:00,
2013-08-13 20:04:00,68.0,65.0,-100.00,WNW,286,3.0,7.0,89,0.00,,,0.31,149.000000,,2013-08-14 00:04:00,
2013-08-13 20:42:00,64.0,63.0,-100.00,WSW,238,2.0,9.0,95,0.00,,,0.31,22.000000,,2013-08-14 00:42:00,
2013-08-13 20:52:00,64.0,63.0,-100.00,WSW,238,2.0,9.0,95,0.00,,,0.31,22.000000,,2013-08-14 00:52:00,
2013-08-13 21:01:00,64.0,63.0,-100.00,WSW,238,2.0,9.0,95,0.00,,,0.31,22.000000,,2013-08-14 01:01:00,
2013-08-13 21:42:00,61.0,60.0,-100.00,NW,323,1.0,5.0,97,0.00,,,0.31,1.000000,,2013-08-14 01:42:00,
2013-08-13 21:52:00,61.0,60.0,-100.00,NW,323,1.0,5.0,97,0.00,,,0.31,1.000000,,2013-08-14 01:52:00,
2013-08-13 22:02:00,61.0,60.0,-100.00,NW,323,1.0,5.0,97,0.00,,,0.31,1.000000,,2013-08-14 02:02:00,
2013-08-13 22:42:00,61.0,61.0,-100.00,West,271,1.0,3.0,100,0.00,,,0.31,0.000000,,2013-08-14 02:42:00,
2013-08-13 22:52:00,61.0,61.0,-100.00,West,271,1.0,3.0,100,0.00,,,0.31,0.000000,,2013-08-14 02:52:00,
2013-08-13 23:01:00,61.0,61.0,-100.00,West,271,1.0,3.0,100,0.00,,,0.31,0.000000,,2013-08-14 03:01:00,
2013-08-13 23:43:00,62.0,62.0,-100.00,West,276,1.0,4.0,100,0.00,,,0.31,0.000000,,2013-08-14 03:43:00,
2013-08-13 23:53:00,62.0,62.0,-100.00,West,276,1.0,4.0,100,0.00,,,0.31,0.000000,,2013-08-14 03:53:00,